Time;durP1;ratioP1;P1;durP2;ratioP2;P2;SDS_P1;SDS_P2;PMS_P1;PMS_P2;Temp;Humidity;BMP_temperature;BMP_pressure;BME280_temperature;BME280_humidity;BME280_pressure;Samples;Min_cycle;Max_cycle;Signal;HPM_P1;HPM_P2
2022/04/20 00:02:21;;;;;;;1.80;1.70;;;14.50;43.50;;;;;;4988547;28;20459;-81
2022/04/20 00:04:49;;;;;;;5.30;2.17;;;14.40;43.90;;;;;;4992280;28;20447;-81
2022/04/20 00:07:16;;;;;;;1.60;1.50;;;14.40;44.10;;;;;;4997972;28;20454;-80
2022/04/20 00:09:48;;;;;;;1.90;1.80;;;14.50;43.80;;;;;;4987099;28;20505;-81
2022/04/20 00:12:15;;;;;;;2.73;2.10;;;14.50;43.70;;;;;;4990740;28;20474;-80
2022/04/20 00:14:43;;;;;;;3.37;2.00;;;14.40;43.90;;;;;;4993876;28;20462;-79
2022/04/20 00:17:10;;;;;;;2.00;1.83;;;14.20;44.00;;;;;;4999742;28;20459;-81
2022/04/20 00:19:38;;;;;;;2.30;1.43;;;14.30;44.20;;;;;;5007560;28;20695;-82
2022/04/20 00:22:05;;;;;;;1.97;1.87;;;14.00;44.30;;;;;;5002238;28;20469;-81
2022/04/20 00:24:32;;;;;;;1.63;1.50;;;13.90;44.50;;;;;;5001287;28;20501;-81
2022/04/20 00:26:59;;;;;;;3.73;1.80;;;13.80;44.60;;;;;;5010900;28;20447;-82
2022/04/20 00:29:27;;;;;;;3.23;1.87;;;13.80;44.90;;;;;;5011413;28;20478;-81
2022/04/20 00:31:53;;;;;;;2.27;2.07;;;13.80;45.00;;;;;;5002558;28;20469;-80
2022/04/20 00:34:20;;;;;;;2.03;1.87;;;13.80;45.10;;;;;;4994675;28;20455;-81
2022/04/20 00:36:51;;;;;;;1.90;1.80;;;13.80;45.00;;;;;;4997825;28;21271;-82
2022/04/20 00:39:18;;;;;;;3.30;2.00;;;13.70;45.00;;;;;;4997934;28;20488;-82
2022/04/20 00:41:46;;;;;;;4.33;1.90;;;13.60;45.70;;;;;;4998246;28;20530;-81
2022/04/20 00:44:14;;;;;;;2.80;1.90;;;13.60;45.30;;;;;;4996638;28;20464;-83
2022/04/20 00:46:42;;;;;;;2.60;1.83;;;13.60;45.10;;;;;;4995019;28;20463;-81
2022/04/20 00:49:10;;;;;;;3.83;1.70;;;13.60;45.20;;;;;;4999987;28;20481;-80
2022/04/20 00:51:58;;;;;;;3.87;1.93;;;13.60;45.50;;;;;;4999557;28;20470;-80
2022/04/20 00:54:25;;;;;;;2.50;2.27;;;13.60;45.20;;;;;;5001036;28;20996;-80
2022/04/20 00:56:52;;;;;;;2.20;2.00;;;13.60;45.30;;;;;;4992050;28;20574;-83
2022/04/20 00:59:22;;;;;;;2.80;2.17;;;13.60;45.50;;;;;;4989079;28;20520;-82
2022/04/20 01:01:50;;;;;;;2.20;1.70;;;13.70;45.70;;;;;;4993779;28;20947;-82
2022/04/20 01:04:19;;;;;;;4.37;2.30;;;13.70;45.60;;;;;;4996527;28;20448;-82
2022/04/20 01:06:49;;;;;;;1.80;1.63;;;13.70;45.50;;;;;;5015395;28;20459;-81
2022/04/20 01:09:16;;;;;;;2.50;2.30;;;13.80;45.70;;;;;;5019341;23;20482;-81
2022/04/20 01:11:43;;;;;;;2.20;2.00;;;13.70;45.70;;;;;;4993498;28;20463;-81
2022/04/20 01:14:10;;;;;;;2.23;2.03;;;13.70;46.10;;;;;;4989514;28;20458;-80
2022/04/20 01:16:36;;;;;;;2.97;2.03;;;13.50;46.10;;;;;;5006551;28;20451;-80
2022/04/20 01:19:03;;;;;;;4.13;2.20;;;13.50;46.20;;;;;;4991441;23;20494;-81
2022/04/20 01:21:30;;;;;;;2.40;1.60;;;13.40;46.40;;;;;;4998579;28;20478;-80
2022/04/20 01:23:57;;;;;;;3.60;2.33;;;13.40;46.50;;;;;;4997463;28;20465;-80
2022/04/20 01:26:24;;;;;;;1.60;1.50;;;13.50;46.40;;;;;;4995970;28;21852;-80
2022/04/20 01:28:51;;;;;;;1.63;1.53;;;13.50;46.40;;;;;;4982161;28;23453;-81
2022/04/20 01:31:18;;;;;;;3.27;2.00;;;13.50;46.30;;;;;;4998887;28;20469;-80
2022/04/20 01:33:45;;;;;;;1.63;1.50;;;13.50;46.50;;;;;;5006409;28;20439;-79
2022/04/20 01:36:12;;;;;;;2.33;2.13;;;13.60;46.10;;;;;;4979221;28;20470;-80
2022/04/20 01:38:39;;;;;;;2.53;1.93;;;13.60;46.00;;;;;;4999326;28;20485;-80
2022/04/20 01:41:06;;;;;;;2.70;2.50;;;13.40;45.90;;;;;;4981371;28;20450;-81
2022/04/20 01:43:33;;;;;;;3.90;1.87;;;13.20;46.10;;;;;;4997016;28;20474;-82
2022/04/20 01:46:00;;;;;;;2.33;2.13;;;13.20;46.70;;;;;;4998906;28;20454;-81
2022/04/20 01:48:28;;;;;;;2.57;2.37;;;13.10;47.10;;;;;;4980380;28;20485;-83
2022/04/20 01:53:40;;;;;;;4.20;2.33;;;13.00;46.90;;;;;;4999051;28;20458;-80
2022/04/20 01:56:07;;;;;;;2.23;2.03;;;12.90;47.10;;;;;;4999330;28;20555;-81
2022/04/20 01:58:34;;;;;;;2.73;2.20;;;12.80;47.60;;;;;;4999307;28;20472;-81
2022/04/20 02:02:34;;;;;;;5.10;3.07;;;12.70;47.60;;;;;;4988761;28;20597;-81
2022/04/20 02:03:48;;;;;;;3.37;2.10;;;12.70;47.80;;;;;;5002299;28;20805;-82
2022/04/20 02:06:17;;;;;;;1.90;1.80;;;12.80;47.50;;;;;;4985299;28;20542;-81
2022/04/20 02:08:44;;;;;;;2.23;2.07;;;12.90;47.40;;;;;;5003391;28;20577;-82
2022/04/20 02:11:11;;;;;;;2.20;2.00;;;12.90;47.50;;;;;;5016732;28;20482;-83
2022/04/20 02:13:39;;;;;;;5.03;2.43;;;12.80;47.50;;;;;;5004882;28;20450;-82
2022/04/20 02:16:07;;;;;;;2.17;2.03;;;12.80;47.70;;;;;;5002522;28;20481;-83
2022/04/20 02:18:34;;;;;;;2.43;2.23;;;12.90;47.50;;;;;;5003858;28;20489;-81
2022/04/20 02:21:02;;;;;;;4.77;2.30;;;12.80;47.50;;;;;;5000920;28;20466;-82
2022/04/20 02:23:29;;;;;;;3.03;2.83;;;12.80;47.40;;;;;;4999709;28;20454;-82
2022/04/20 02:25:56;;;;;;;5.20;2.50;;;12.80;47.50;;;;;;5020080;28;20474;-82
2022/04/20 02:28:23;;;;;;;3.80;2.70;;;12.80;47.60;;;;;;5019504;28;20505;-82
2022/04/20 02:30:49;;;;;;;2.53;2.33;;;12.80;47.60;;;;;;5019579;28;20468;-82
2022/04/20 02:33:16;;;;;;;2.37;2.17;;;12.80;47.50;;;;;;5020838;28;20695;-82
2022/04/20 02:35:43;;;;;;;1.97;1.87;;;12.80;47.70;;;;;;5013043;28;20470;-81
2022/04/20 02:40:52;;;;;;;1.90;1.80;;;12.70;47.40;;;;;;4985174;23;20536;-82
2022/04/20 02:43:19;;;;;;;2.53;2.30;;;12.50;47.90;;;;;;4980151;28;20479;-81
2022/04/20 02:45:46;;;;;;;1.83;1.73;;;12.60;48.20;;;;;;4995260;28;20456;-80
2022/04/20 02:48:14;;;;;;;2.93;2.30;;;12.60;48.10;;;;;;4977477;28;20487;-79
2022/04/20 02:50:40;;;;;;;3.17;2.43;;;12.50;48.40;;;;;;4957149;28;20552;-81
2022/04/20 02:53:07;;;;;;;2.43;2.23;;;12.50;48.60;;;;;;4956162;28;20471;-80
2022/04/20 02:55:34;;;;;;;3.10;2.00;;;12.60;48.60;;;;;;4950962;28;20457;-81
2022/04/20 02:58:00;;;;;;;3.50;1.77;;;12.40;48.10;;;;;;4954532;28;20458;-83
2022/04/20 03:00:27;;;;;;;3.80;2.10;;;12.40;48.10;;;;;;4950413;28;20489;-82
2022/04/20 03:02:54;;;;;;;1.87;1.70;;;12.30;48.40;;;;;;4967082;28;20473;-82
2022/04/20 03:05:20;;;;;;;2.13;2.03;;;12.20;48.50;;;;;;4967993;28;20468;-82
2022/04/20 03:07:47;;;;;;;2.23;2.10;;;12.20;48.60;;;;;;4953064;28;20559;-82
2022/04/20 03:10:14;;;;;;;3.60;2.37;;;12.20;48.70;;;;;;4963102;28;20453;-81
2022/04/20 03:12:41;;;;;;;1.97;1.83;;;12.10;48.90;;;;;;4962875;28;20461;-80
2022/04/20 03:15:08;;;;;;;3.13;1.53;;;12.10;49.00;;;;;;4964722;28;21279;-82
2022/04/20 03:17:35;;;;;;;4.47;3.20;;;12.00;49.10;;;;;;4965834;28;20444;-81
2022/04/20 03:20:03;;;;;;;2.43;2.07;;;12.00;49.00;;;;;;4955648;28;20509;-80
2022/04/20 03:22:29;;;;;;;2.50;2.30;;;11.90;49.30;;;;;;4935995;28;20449;-81
2022/04/20 03:24:56;;;;;;;2.47;2.03;;;11.90;49.20;;;;;;4963318;28;20469;-80
2022/04/20 03:27:23;;;;;;;2.13;2.03;;;11.90;49.40;;;;;;4981774;28;20451;-80
2022/04/20 03:29:49;;;;;;;2.23;1.90;;;11.90;49.60;;;;;;4962411;28;20527;-80
2022/04/20 03:32:16;;;;;;;2.50;1.90;;;11.90;49.80;;;;;;4961465;28;20529;-81
2022/04/20 03:34:43;;;;;;;2.00;1.90;;;11.90;49.60;;;;;;4962986;28;20465;-81
2022/04/20 03:37:10;;;;;;;2.00;1.90;;;11.90;49.30;;;;;;4959857;28;20457;-81
2022/04/20 03:39:37;;;;;;;3.00;2.20;;;11.70;49.50;;;;;;4962945;28;20577;-80
2022/04/20 03:42:04;;;;;;;2.33;2.03;;;11.60;49.70;;;;;;4961403;28;20469;-83
2022/04/20 03:44:32;;;;;;;4.53;2.03;;;11.60;49.90;;;;;;4958547;28;20465;-81
2022/04/20 03:46:58;;;;;;;1.97;1.87;;;11.60;50.20;;;;;;4963116;28;20480;-82
2022/04/20 03:49:25;;;;;;;3.00;1.93;;;11.50;50.10;;;;;;4963705;28;20472;-82
2022/04/20 03:51:52;;;;;;;2.80;2.60;;;11.70;50.10;;;;;;4958359;28;20488;-81
2022/04/20 03:54:19;;;;;;;4.10;1.97;;;11.60;50.10;;;;;;4964685;28;20503;-80
2022/04/20 03:57:04;;;;;;;2.53;2.33;;;11.50;50.10;;;;;;4968375;28;20451;-82
2022/04/20 03:59:36;;;;;;;1.90;1.80;;;11.60;50.40;;;;;;4965052;28;20489;-81
2022/04/20 04:02:04;;;;;;;2.20;2.10;;;11.50;50.40;;;;;;4966011;28;20500;-82
2022/04/20 04:04:32;;;;;;;3.13;2.13;;;11.50;50.50;;;;;;4958433;28;20476;-81
2022/04/20 04:06:59;;;;;;;2.13;2.00;;;11.50;50.60;;;;;;4970795;28;20480;-81
2022/04/20 04:09:27;;;;;;;2.23;1.97;;;11.50;50.70;;;;;;4970040;28;20490;-82
2022/04/20 04:11:55;;;;;;;3.53;1.90;;;11.50;50.70;;;;;;4963356;28;20467;-81
2022/04/20 04:14:25;;;;;;;1.80;1.70;;;11.50;51.10;;;;;;4970595;28;20452;-82
2022/04/20 04:16:52;;;;;;;2.13;1.90;;;11.40;51.00;;;;;;4967468;28;20520;-81
2022/04/20 04:19:19;;;;;;;3.40;2.50;;;11.40;50.90;;;;;;4967114;28;20490;-81
2022/04/20 04:21:47;;;;;;;2.70;2.23;;;11.40;51.00;;;;;;4964376;28;20443;-82
2022/04/20 04:27:03;;;;;;;2.70;2.50;;;11.30;51.20;;;;;;4957465;28;20479;-81
2022/04/20 04:29:31;;;;;;;2.30;2.00;;;11.20;51.20;;;;;;5012249;23;20506;-81
2022/04/20 04:31:59;;;;;;;3.37;1.90;;;11.20;51.30;;;;;;4973584;28;20468;-81
2022/04/20 04:34:26;;;;;;;2.13;2.00;;;11.20;51.10;;;;;;4975107;28;20538;-80
2022/04/20 04:36:57;;;;;;;1.80;1.70;;;11.20;51.20;;;;;;4969953;28;20460;-82
2022/04/20 04:39:28;;;;;;;1.83;1.70;;;11.20;51.50;;;;;;5096354;23;20914;-81
2022/04/20 04:42:00;;;;;;;3.93;2.30;;;11.20;51.60;;;;;;4986558;28;20449;-81
2022/04/20 04:44:29;;;;;;;2.13;1.90;;;11.20;51.70;;;;;;4966859;28;20574;-81
2022/04/20 04:49:47;;;;;;;2.00;1.90;;;11.30;51.70;;;;;;4992308;23;20499;-81
2022/04/20 04:52:13;;;;;;;5.23;2.30;;;11.50;51.50;;;;;;4954689;28;20455;-81
2022/04/20 04:54:40;;;;;;;3.90;2.30;;;11.50;51.50;;;;;;4951496;28;20461;-81
2022/04/20 04:57:08;;;;;;;1.80;1.70;;;11.40;51.60;;;;;;4953393;28;20468;-82
2022/04/20 04:59:43;;;;;;;4.30;2.10;;;11.60;51.20;;;;;;4929749;29;20603;-82
2022/04/20 05:02:10;;;;;;;2.33;2.10;;;11.70;51.20;;;;;;4937399;29;20446;-81
2022/04/20 05:04:42;;;;;;;2.83;2.53;;;11.60;51.10;;;;;;4919125;29;20484;-81
2022/04/20 05:07:09;;;;;;;2.27;2.00;;;11.60;51.40;;;;;;4938714;29;20436;-82
2022/04/20 05:09:36;;;;;;;4.63;2.47;;;11.50;51.60;;;;;;5026870;23;20513;-82
2022/04/20 05:12:03;;;;;;;2.30;2.03;;;11.50;51.50;;;;;;4993685;28;20458;-83
2022/04/20 05:14:30;;;;;;;4.27;2.97;;;11.40;51.70;;;;;;4991688;28;20470;-81
2022/04/20 05:16:59;;;;;;;2.97;2.60;;;11.30;51.90;;;;;;4995577;28;20519;-81
2022/04/20 05:19:29;;;;;;;2.83;2.27;;;11.30;51.90;;;;;;4982370;28;20511;-80
2022/04/20 05:22:12;;;;;;;3.70;1.83;;;11.40;51.80;;;;;;4980037;28;20523;-79
2022/04/20 05:24:41;;;;;;;3.53;2.20;;;11.50;51.90;;;;;;4980166;28;21036;-81
2022/04/20 05:27:08;;;;;;;2.67;1.80;;;11.40;51.70;;;;;;4979201;28;20504;-79
2022/04/20 05:29:35;;;;;;;2.47;2.27;;;11.40;52.00;;;;;;4977158;28;20888;-80
2022/04/20 05:32:02;;;;;;;2.60;2.10;;;11.50;51.90;;;;;;4978639;28;22578;-80
2022/04/20 05:34:33;;;;;;;3.03;1.90;;;11.50;51.90;;;;;;4980672;28;20482;-81
2022/04/20 05:42:31;;;;;;;3.60;2.40;;;11.30;52.20;;;;;;4983006;28;20479;-80
2022/04/20 05:44:59;;;;;;;2.43;1.80;;;11.40;52.00;;;;;;4982563;28;20486;-81
2022/04/20 05:47:27;;;;;;;4.90;2.30;;;11.50;51.50;;;;;;4983128;28;20486;-80
2022/04/20 05:55:10;;;;;;;4.63;2.40;;;11.70;51.20;;;;;;4990630;28;20990;-82
2022/04/20 05:57:37;;;;;;;2.30;2.07;;;11.80;50.90;;;;;;4987687;28;20474;-81
2022/04/20 06:00:05;;;;;;;5.70;2.17;;;11.90;50.90;;;;;;4988724;28;20493;-81
2022/04/20 06:02:34;;;;;;;3.80;2.20;;;12.00;50.70;;;;;;4991925;28;20459;-80
2022/04/20 06:05:05;;;;;;;8.50;2.47;;;12.70;50.50;;;;;;4986521;28;20999;-80
2022/04/20 06:07:33;;;;;;;4.77;2.43;;;16.20;47.60;;;;;;4988060;28;20459;-82
2022/04/20 06:10:01;;;;;;;3.20;2.47;;;18.70;43.10;;;;;;4987514;28;20475;-82
2022/04/20 06:12:30;;;;;;;2.97;1.90;;;21.00;39.00;;;;;;4987187;28;20459;-81
2022/04/20 06:14:57;;;;;;;2.77;2.43;;;21.90;36.00;;;;;;4989419;28;20463;-81
2022/04/20 06:17:24;;;;;;;2.90;2.30;;;22.10;35.20;;;;;;4992210;28;20439;-81
2022/04/20 06:19:50;;;;;;;3.23;2.87;;;22.90;34.70;;;;;;4990263;28;20835;-82
2022/04/20 06:22:17;;;;;;;5.13;2.67;;;24.10;33.80;;;;;;4995015;28;20477;-83
2022/04/20 06:24:44;;;;;;;2.60;2.40;;;24.80;32.70;;;;;;5000790;28;20466;-82
2022/04/20 06:27:11;;;;;;;2.90;2.40;;;25.40;31.10;;;;;;5002333;28;20431;-82
2022/04/20 06:29:38;;;;;;;3.00;2.70;;;26.00;30.40;;;;;;5001908;28;20477;-82
2022/04/20 06:32:06;;;;;;;3.67;2.77;;;26.10;29.70;;;;;;5001616;28;20515;-81
2022/04/20 06:34:33;;;;;;;4.70;2.40;;;25.70;29.50;;;;;;4999702;28;20944;-82
2022/04/20 06:37:00;;;;;;;3.30;2.73;;;24.60;29.70;;;;;;5000128;28;20443;-83
2022/04/20 06:39:28;;;;;;;5.90;2.73;;;24.90;30.30;;;;;;4985891;28;20487;-82
2022/04/20 06:41:54;;;;;;;3.57;2.37;;;25.60;30.00;;;;;;4986929;28;20578;-80
2022/04/20 06:44:21;;;;;;;3.10;2.80;;;25.00;29.20;;;;;;4984233;28;20952;-81
2022/04/20 06:46:48;;;;;;;3.30;2.10;;;23.60;29.80;;;;;;4988038;28;20547;-81
2022/04/20 06:49:16;;;;;;;4.97;2.63;;;22.40;30.60;;;;;;4992479;28;20466;-82
2022/04/20 07:00:02;;;;;;;2.00;1.90;;;24.10;30.20;;;;;;4984932;28;20531;-81
2022/04/20 07:02:32;;;;;;;2.20;2.10;;;24.80;29.50;;;;;;4990689;28;20514;-81
2022/04/20 07:04:59;;;;;;;2.70;2.30;;;24.90;28.90;;;;;;4989892;28;20468;-80
2022/04/20 07:07:26;;;;;;;2.80;2.37;;;24.20;29.00;;;;;;4999189;28;20514;-81
2022/04/20 07:10:13;;;;;;;2.30;2.10;;;24.80;28.90;;;;;;4991275;28;20455;-81
2022/04/20 07:12:40;;;;;;;2.40;2.13;;;25.50;28.70;;;;;;4995418;28;20501;-82
2022/04/20 07:15:07;;;;;;;3.80;2.60;;;25.00;28.10;;;;;;4992144;28;20460;-82
2022/04/20 07:17:34;;;;;;;4.00;2.27;;;24.60;28.30;;;;;;4989728;28;20451;-82
2022/04/20 07:20:02;;;;;;;2.60;1.77;;;25.00;28.60;;;;;;4984105;28;20482;-81
2022/04/20 07:22:28;;;;;;;2.80;2.53;;;24.90;28.20;;;;;;4983673;28;20451;-81
2022/04/20 07:24:55;;;;;;;2.80;2.10;;;25.10;28.20;;;;;;4985773;28;20470;-83
2022/04/20 07:27:22;;;;;;;2.27;1.93;;;24.90;27.50;;;;;;4992304;28;20427;-81
2022/04/20 07:29:49;;;;;;;1.97;1.77;;;24.60;28.10;;;;;;5004514;28;20469;-82
2022/04/20 07:32:50;;;;;;;4.37;2.40;;;25.50;27.60;;;;;;4978824;28;20568;-82
2022/04/20 07:35:17;;;;;;;2.20;2.00;;;26.90;26.50;;;;;;4980287;28;20466;-81
2022/04/20 07:37:44;;;;;;;4.13;2.10;;;25.30;27.30;;;;;;4980155;28;20471;-83
2022/04/20 07:40:19;;;;;;;2.07;1.87;;;26.10;27.50;;;;;;4981698;28;20474;-80
2022/04/20 07:42:54;;;;;;;9.00;2.20;;;27.10;26.40;;;;;;4995941;28;20462;-81
2022/04/20 07:45:33;;;;;;;2.27;2.00;;;27.20;24.80;;;;;;4966200;28;21177;-81
2022/04/20 07:51:26;;;;;;;2.40;2.20;;;26.50;26.10;;;;;;4945986;28;20468;-81
2022/04/20 07:54:05;;;;;;;2.17;1.97;;;27.60;25.50;;;;;;4949205;28;20465;-81
2022/04/20 07:56:34;;;;;;;4.20;1.87;;;27.60;24.80;;;;;;4921920;29;20444;-81
2022/04/20 07:59:22;;;;;;;1.97;1.80;;;27.50;24.70;;;;;;4922408;28;20533;-82
2022/04/20 08:02:21;;;;;;;4.30;2.20;;;25.10;25.20;;;;;;4950006;28;20555;-81
2022/04/20 08:04:53;;;;;;;2.77;1.87;;;23.20;27.40;;;;;;4943959;29;20450;-80
2022/04/20 08:07:20;;;;;;;4.03;2.27;;;24.80;27.30;;;;;;4916476;29;20539;-81
2022/04/20 08:09:47;;;;;;;2.53;2.33;;;25.90;26.10;;;;;;4921807;29;20493;-80
2022/04/20 08:12:14;;;;;;;2.17;1.80;;;25.80;25.70;;;;;;4931799;29;20462;-82
2022/04/20 08:14:41;;;;;;;2.50;2.30;;;26.50;25.60;;;;;;4926120;29;20526;-82
2022/04/20 08:17:08;;;;;;;2.10;2.00;;;26.20;25.50;;;;;;4920112;29;20505;-81
2022/04/20 08:19:37;;;;;;;2.40;2.07;;;25.80;25.60;;;;;;5038377;23;20500;-80
2022/04/20 08:22:04;;;;;;;5.83;2.23;;;26.30;26.00;;;;;;4997881;28;20565;-81
2022/04/20 08:24:31;;;;;;;2.50;2.30;;;26.40;25.60;;;;;;4995534;28;20458;-81
2022/04/20 08:26:57;;;;;;;2.53;1.90;;;26.20;25.00;;;;;;5010795;28;20464;-79
2022/04/20 08:29:24;;;;;;;2.17;1.97;;;25.90;25.50;;;;;;5006398;28;20477;-79
2022/04/20 08:31:51;;;;;;;2.70;2.00;;;25.60;25.60;;;;;;5005745;28;20461;-81
2022/04/20 08:34:18;;;;;;;2.57;1.93;;;25.70;26.20;;;;;;5005542;28;20465;-82
2022/04/20 08:36:45;;;;;;;2.23;2.00;;;25.50;25.70;;;;;;5007019;28;20454;-80
2022/04/20 08:39:12;;;;;;;2.40;2.20;;;25.70;25.90;;;;;;4986424;28;20478;-81
2022/04/20 08:41:41;;;;;;;3.93;2.03;;;26.50;25.70;;;;;;5004443;28;20486;-83
2022/04/20 08:44:13;;;;;;;4.00;2.17;;;26.70;25.20;;;;;;4988401;28;20537;-81
2022/04/20 08:46:44;;;;;;;2.20;2.00;;;26.50;24.50;;;;;;4988870;28;20466;-80
2022/04/20 08:49:10;;;;;;;4.27;2.20;;;26.10;24.20;;;;;;4988672;28;21098;-81
2022/04/20 08:54:24;;;;;;;2.53;2.33;;;26.50;24.10;;;;;;5005298;28;20871;-81
2022/04/20 08:59:37;;;;;;;3.40;2.00;;;26.20;24.30;;;;;;5006323;28;20556;-82
2022/04/20 09:02:04;;;;;;;2.40;2.03;;;26.20;24.20;;;;;;5006450;28;20509;-81
2022/04/20 09:04:32;;;;;;;2.30;2.10;;;26.60;23.80;;;;;;4987876;28;20549;-82
2022/04/20 09:07:04;;;;;;;1.97;1.87;;;26.20;23.90;;;;;;4991264;28;20489;-80
2022/04/20 09:09:31;;;;;;;3.73;2.20;;;25.70;24.60;;;;;;5008592;28;20489;-81
2022/04/20 09:11:59;;;;;;;1.90;1.80;;;25.80;24.40;;;;;;5008119;28;20450;-81
2022/04/20 09:14:30;;;;;;;2.40;2.07;;;25.60;24.70;;;;;;4988334;28;20490;-82
2022/04/20 09:17:00;;;;;;;4.27;2.07;;;25.20;25.10;;;;;;4989591;28;20464;-81
2022/04/20 09:19:28;;;;;;;4.10;2.17;;;25.10;25.40;;;;;;5031840;23;20512;-81
2022/04/20 09:22:20;;;;;;;2.07;1.80;;;25.80;25.00;;;;;;4980169;28;20476;-83
2022/04/20 09:25:11;;;;;;;4.23;1.93;;;26.30;24.80;;;;;;4977506;28;20448;-83
2022/04/20 09:27:52;;;;;;;3.30;2.00;;;27.20;23.90;;;;;;4974510;28;20451;-82
2022/04/20 09:30:18;;;;;;;2.10;2.00;;;26.60;24.10;;;;;;4974347;28;20487;-82
2022/04/20 09:32:47;;;;;;;2.43;1.90;;;25.80;24.50;;;;;;4973302;28;21037;-81
2022/04/20 09:35:16;;;;;;;2.50;1.63;;;25.10;24.60;;;;;;4974702;28;20937;-81
2022/04/20 09:37:44;;;;;;;2.10;2.00;;;24.80;25.10;;;;;;4974772;28;20467;-81
2022/04/20 09:50:04;;;;;;;2.57;2.37;;;25.50;25.00;;;;;;4945321;28;20506;-81
2022/04/20 09:52:44;;;;;;;2.00;1.90;;;25.40;25.20;;;;;;4934566;28;20870;-83
2022/04/20 09:55:13;;;;;;;4.70;2.10;;;25.70;25.20;;;;;;4975164;28;20836;-82
2022/04/20 09:58:18;;;;;;;;;;;;;;;;;;;;;
2022/04/20 10:13:20;;;;;;;2.10;1.90;;;25.90;23.80;;;;;;5162085;23;20499;-80
2022/04/20 10:16:05;;;;;;;2.23;2.03;;;25.50;24.20;;;;;;4990345;28;20443;-80
2022/04/20 10:18:37;;;;;;;3.73;2.07;;;25.50;24.80;;;;;;4999220;28;20506;-82
2022/04/20 10:21:11;;;;;;;2.30;2.10;;;26.20;25.00;;;;;;4985408;28;20852;-82
2022/04/20 10:24:23;;;;;;;1.87;1.77;;;26.60;24.60;;;;;;4982939;28;20509;-80
2022/04/20 10:27:55;;;;;;;4.00;2.43;;;26.30;24.10;;;;;;4985983;28;20458;-79
2022/04/20 10:30:32;;;;;;;2.23;2.07;;;26.00;24.60;;;;;;5037663;23;20566;-81
2022/04/20 10:33:08;;;;;;;1.73;1.63;;;26.10;24.40;;;;;;4930071;29;20461;-80
2022/04/20 10:36:03;;;;;;;4.77;2.00;;;25.70;24.60;;;;;;4913670;29;20521;-81
2022/04/20 10:38:32;;;;;;;2.47;1.80;;;25.40;25.10;;;;;;4919829;23;20552;-82
2022/04/20 10:41:02;;;;;;;2.20;2.00;;;25.50;25.10;;;;;;4943011;28;20522;-81
2022/04/20 10:43:31;;;;;;;1.80;1.70;;;26.10;24.60;;;;;;4944516;28;20535;-80
2022/04/20 10:46:04;;;;;;;2.10;2.00;;;25.40;24.70;;;;;;4949318;28;20464;-80
2022/04/20 10:49:02;;;;;;;2.00;1.80;;;26.00;24.70;;;;;;4956365;28;20485;-83
2022/04/20 10:51:35;;;;;;;3.17;2.27;;;26.20;24.60;;;;;;4944444;28;20493;-80
2022/04/20 10:54:17;;;;;;;1.90;1.77;;;25.90;24.70;;;;;;4952418;28;20545;-81
2022/04/20 10:56:49;;;;;;;4.30;2.07;;;27.30;24.50;;;;;;4945054;28;20464;-82
2022/04/20 10:59:16;;;;;;;4.20;2.03;;;26.90;24.60;;;;;;4963729;28;20467;-81
2022/04/20 11:02:07;;;;;;;2.63;1.90;;;27.10;23.90;;;;;;4945306;28;20582;-79
2022/04/20 11:05:11;;;;;;;3.53;2.80;;;26.00;24.30;;;;;;4965958;28;20456;-80
2022/04/20 11:08:04;;;;;;;2.10;1.93;;;25.30;24.70;;;;;;4964026;28;20444;-80
2022/04/20 11:10:33;;;;;;;3.53;2.53;;;25.70;24.70;;;;;;4961653;28;20464;-82
2022/04/20 11:19:00;;;;;;;2.00;1.90;;;25.00;25.00;;;;;;4958297;28;20483;-81
2022/04/20 11:21:27;;;;;;;2.03;1.83;;;25.00;25.50;;;;;;4946199;28;20486;-81
2022/04/20 11:24:11;;;;;;;1.90;1.73;;;25.30;25.30;;;;;;4958485;28;20483;-82
2022/04/20 11:26:49;;;;;;;3.30;2.07;;;24.90;25.20;;;;;;4944540;28;20471;-80
2022/04/20 11:29:18;;;;;;;2.77;2.57;;;24.50;26.10;;;;;;4935833;28;20479;-81
2022/04/20 11:31:48;;;;;;;3.17;2.20;;;25.80;25.60;;;;;;4957443;28;20469;-80
2022/04/20 11:34:20;;;;;;;2.43;2.23;;;26.10;24.90;;;;;;4965257;28;20516;-80
2022/04/20 11:36:53;;;;;;;3.40;1.70;;;26.10;25.60;;;;;;4970493;28;20449;-80
2022/04/20 11:39:23;;;;;;;1.87;1.77;;;26.80;24.30;;;;;;4947795;28;20476;-81
2022/04/20 11:41:55;;;;;;;2.40;1.67;;;26.40;24.00;;;;;;4966801;28;20459;-81
2022/04/20 11:44:24;;;;;;;3.27;1.67;;;25.60;24.70;;;;;;4966185;28;20538;-80
2022/04/20 11:46:58;;;;;;;1.77;1.63;;;25.40;25.20;;;;;;4969866;28;22169;-81
2022/04/20 11:49:36;;;;;;;2.87;1.83;;;25.70;25.30;;;;;;4938579;28;20628;-81
2022/04/20 11:52:07;;;;;;;3.53;2.17;;;25.80;24.90;;;;;;4939153;28;20474;-81
2022/04/20 11:54:34;;;;;;;1.80;1.70;;;26.60;25.10;;;;;;4961860;28;20515;-81
2022/04/20 11:57:02;;;;;;;1.80;1.70;;;27.20;25.10;;;;;;4959787;28;20977;-81
2022/04/20 11:59:29;;;;;;;3.23;1.70;;;26.40;24.40;;;;;;4960601;28;20498;-81
2022/04/20 12:01:56;;;;;;;2.13;1.93;;;27.10;24.60;;;;;;4939519;28;20488;-81
2022/04/20 12:04:27;;;;;;;6.60;6.03;;;26.10;24.40;;;;;;4943625;28;20466;-81
2022/04/20 12:06:59;;;;;;;2.10;1.90;;;26.20;25.90;;;;;;4947552;28;20463;-82
2022/04/20 12:09:28;;;;;;;2.20;1.93;;;26.10;25.20;;;;;;4968771;28;20503;-80
2022/04/20 12:12:00;;;;;;;2.40;2.20;;;25.80;25.10;;;;;;4942629;28;20484;-81
2022/04/20 12:14:30;;;;;;;3.10;2.03;;;25.60;25.90;;;;;;4941456;28;20479;-81
2022/04/20 12:17:07;;;;;;;3.43;1.80;;;26.00;26.10;;;;;;4940540;28;20467;-81
2022/04/20 12:19:35;;;;;;;2.60;1.70;;;26.80;26.60;;;;;;4958566;28;20960;-82
2022/04/20 12:22:11;;;;;;;2.20;2.00;;;26.60;24.70;;;;;;4958085;28;20579;-82
2022/04/20 12:24:40;;;;;;;1.90;1.70;;;26.40;25.40;;;;;;4948480;28;20460;-81
2022/04/20 12:27:24;;;;;;;2.00;1.80;;;26.10;25.20;;;;;;4951093;28;20468;-79
2022/04/20 12:29:58;;;;;;;2.13;1.93;;;25.40;25.20;;;;;;4966431;28;20472;-82
2022/04/20 12:32:33;;;;;;;2.80;1.90;;;24.70;25.90;;;;;;4947924;28;20550;-80
2022/04/20 12:35:01;;;;;;;2.13;1.93;;;24.90;26.10;;;;;;4962585;28;20966;-80
2022/04/20 12:37:30;;;;;;;3.43;2.17;;;25.30;26.10;;;;;;4944636;28;20464;-81
2022/04/20 12:40:19;;;;;;;2.53;1.90;;;25.50;25.40;;;;;;4967318;28;20502;-81
2022/04/20 12:43:05;;;;;;;1.80;1.53;;;25.20;25.80;;;;;;4942593;28;20953;-82
2022/04/20 12:45:34;;;;;;;2.03;1.90;;;25.30;25.90;;;;;;4942175;28;20493;-81
2022/04/20 12:48:12;;;;;;;1.67;1.50;;;25.20;26.10;;;;;;4941473;28;20554;-80
2022/04/20 12:50:45;;;;;;;1.60;1.50;;;25.50;26.20;;;;;;4960919;28;20456;-79
2022/04/20 12:53:12;;;;;;;2.40;1.90;;;25.20;25.80;;;;;;4960299;28;20464;-78
2022/04/20 13:04:23;;;;;;;3.10;1.87;;;24.50;26.80;;;;;;4907566;29;20530;-79
2022/04/20 13:06:50;;;;;;;1.97;1.60;;;24.80;27.10;;;;;;4922496;28;20444;-79
2022/04/20 13:09:17;;;;;;;3.50;3.20;;;25.10;26.70;;;;;;4946863;28;21650;-80
2022/04/20 13:11:43;;;;;;;2.60;2.40;;;25.20;26.70;;;;;;4944941;28;20945;-80
2022/04/20 13:14:10;;;;;;;2.10;2.00;;;24.90;26.50;;;;;;4963438;28;20449;-79
2022/04/20 13:16:37;;;;;;;2.90;2.10;;;24.70;26.70;;;;;;4949016;28;20439;-80
2022/04/20 13:19:04;;;;;;;2.00;1.70;;;24.80;26.50;;;;;;4963962;28;20584;-81
2022/04/20 13:21:31;;;;;;;1.97;1.87;;;24.40;26.70;;;;;;4969118;28;20467;-79
2022/04/20 13:23:58;;;;;;;1.80;1.70;;;24.60;26.80;;;;;;4966091;28;20445;-79
2022/04/20 13:29:12;;;;;;;1.77;1.67;;;25.20;26.70;;;;;;4966870;28;20465;-80
2022/04/20 13:31:40;;;;;;;4.90;1.80;;;24.90;26.60;;;;;;4948561;28;20514;-80
2022/04/20 13:34:08;;;;;;;2.87;1.63;;;24.60;27.10;;;;;;4948055;28;20464;-79
2022/04/20 13:36:35;;;;;;;2.70;1.53;;;24.40;27.30;;;;;;4964588;28;20834;-79
2022/04/20 13:39:02;;;;;;;3.00;1.87;;;24.20;27.40;;;;;;4946236;28;20484;-80
2022/04/20 13:41:30;;;;;;;2.17;1.97;;;24.70;27.60;;;;;;4963463;28;20460;-79
2022/04/20 13:43:57;;;;;;;4.67;1.80;;;25.10;27.60;;;;;;4964948;28;20946;-80
2022/04/20 13:46:23;;;;;;;3.77;2.47;;;25.20;26.80;;;;;;4956287;28;20484;-78
2022/04/20 13:48:51;;;;;;;3.30;1.63;;;25.10;26.60;;;;;;4926787;28;20490;-79
2022/04/20 13:51:18;;;;;;;4.70;3.23;;;24.90;26.80;;;;;;4967447;28;20464;-82
2022/04/20 13:53:48;;;;;;;1.80;1.70;;;25.10;27.30;;;;;;4970303;28;20471;-81
2022/04/20 13:56:15;;;;;;;2.30;1.37;;;24.70;26.90;;;;;;4966182;28;20465;-80
2022/04/20 13:58:42;;;;;;;1.77;1.67;;;24.80;27.30;;;;;;4965877;28;20480;-80
2022/04/20 14:01:09;;;;;;;1.90;1.80;;;24.70;27.10;;;;;;4947239;28;20445;-80
2022/04/20 14:03:39;;;;;;;3.10;1.90;;;24.60;27.10;;;;;;4948514;28;20477;-79
2022/04/20 14:06:06;;;;;;;2.50;1.73;;;24.00;27.20;;;;;;4951902;28;20476;-80
2022/04/20 14:08:35;;;;;;;1.67;1.57;;;23.80;28.20;;;;;;4972672;28;20480;-80
2022/04/20 14:11:03;;;;;;;1.90;1.80;;;23.70;28.60;;;;;;4950009;28;20963;-81
2022/04/20 14:13:29;;;;;;;1.70;1.60;;;24.00;28.40;;;;;;4964373;28;20475;-80
2022/04/20 14:16:00;;;;;;;1.10;1.00;;;24.60;28.10;;;;;;4964608;28;20460;-79
2022/04/20 14:18:26;;;;;;;2.80;1.50;;;24.50;28.40;;;;;;4945434;28;20453;-81
2022/04/20 14:20:53;;;;;;;1.40;1.30;;;24.70;27.70;;;;;;4945524;28;20455;-81
2022/04/20 14:23:20;;;;;;;1.67;1.40;;;24.80;27.50;;;;;;4952231;28;20480;-80